<?xml version="1.0" encoding="UTF-8" standalone="no" ?>
<gpx xmlns="http://www.topografix.com/GPX/1/1" xmlns:xsi="http://www.w3.org/2001/XMLSchema-instance" xsi:schemaLocation="http://www.topografix.com/GPX/1/1 http://www.topografix.com/GPX/1/1/gpx.xsd" version="1.1" creator="VisuGPX - https://www.visugpx.com">
  <metadata>
    <name>boucles beaumont</name>
    <desc><![CDATA[boucles beaumont du périgord]]></desc>
  </metadata>
  <trk>
    <name><![CDATA[BBmt35]]></name>
    <trkseg>
      <trkpt lat="44.7696" lon="0.79693">
        <ele>83</ele>
        <time>2008-12-03T11:49:12Z</time>
      </trkpt>
      <trkpt lat="44.76973" lon="0.79673">
        <ele>83</ele>
        <time>2008-12-03T11:49:16Z</time>
      </trkpt>
      <trkpt lat="44.76983" lon="0.79643">
        <ele>84</ele>
        <time>2008-12-03T11:49:20Z</time>
      </trkpt>
      <trkpt lat="44.76995" lon="0.79623">
        <ele>85</ele>
        <time>2008-12-03T11:49:39Z</time>
      </trkpt>
      <trkpt lat="44.77018" lon="0.79633">
        <ele>83</ele>
        <time>2008-12-03T11:49:43Z</time>
      </trkpt>
      <trkpt lat="44.7704" lon="0.79633">
        <ele>82</ele>
        <time>2008-12-03T11:49:47Z</time>
      </trkpt>
      <trkpt lat="44.7706" lon="0.79623">
        <ele>83</ele>
        <time>2008-12-03T11:50:04Z</time>
      </trkpt>
      <trkpt lat="44.77078" lon="0.79608">
        <ele>83</ele>
        <time>2008-12-03T11:50:08Z</time>
      </trkpt>
      <trkpt lat="44.77093" lon="0.79593">
        <ele>84</ele>
        <time>2008-12-03T11:50:12Z</time>
      </trkpt>
      <trkpt lat="44.7711" lon="0.79575">
        <ele>85</ele>
        <time>2008-12-03T11:50:16Z</time>
      </trkpt>
      <trkpt lat="44.77128" lon="0.79555">
        <ele>86</ele>
        <time>2008-12-03T11:50:20Z</time>
      </trkpt>
      <trkpt lat="44.77143" lon="0.7954">
        <ele>88</ele>
        <time>2008-12-03T11:50:22Z</time>
      </trkpt>
      <trkpt lat="44.77158" lon="0.79525">
        <ele>91</ele>
        <time>2008-12-03T11:50:26Z</time>
      </trkpt>
      <trkpt lat="44.77175" lon="0.79508">
        <ele>92</ele>
        <time>2008-12-03T11:50:30Z</time>
      </trkpt>
      <trkpt lat="44.77193" lon="0.79485">
        <ele>97</ele>
        <time>2008-12-03T11:50:34Z</time>
      </trkpt>
      <trkpt lat="44.77203" lon="0.79463">
        <ele>98</ele>
        <time>2008-12-03T11:50:38Z</time>
      </trkpt>
      <trkpt lat="44.77205" lon="0.79435">
        <ele>100</ele>
        <time>2008-12-03T11:50:43Z</time>
      </trkpt>
      <trkpt lat="44.77213" lon="0.79408">
        <ele>99</ele>
        <time>2008-12-03T11:50:47Z</time>
      </trkpt>
      <trkpt lat="44.77223" lon="0.79383">
        <ele>96</ele>
        <time>2008-12-03T11:50:52Z</time>
      </trkpt>
      <trkpt lat="44.7724" lon="0.79368">
        <ele>93</ele>
        <time>2008-12-03T11:51:05Z</time>
      </trkpt>
      <trkpt lat="44.7725" lon="0.7934">
        <ele>103</ele>
        <time>2008-12-03T11:51:10Z</time>
      </trkpt>
      <trkpt lat="44.77255" lon="0.79313">
        <ele>107</ele>
        <time>2008-12-03T11:51:12Z</time>
      </trkpt>
      <trkpt lat="44.77258" lon="0.79285">
        <ele>111</ele>
        <time>2008-12-03T11:51:16Z</time>
      </trkpt>
      <trkpt lat="44.77263" lon="0.79253">
        <ele>115</ele>
        <time>2008-12-03T11:51:20Z</time>
      </trkpt>
      <trkpt lat="44.77268" lon="0.79225">
        <ele>119</ele>
        <time>2008-12-03T11:51:23Z</time>
      </trkpt>
      <trkpt lat="44.7727" lon="0.79198">
        <ele>119</ele>
        <time>2008-12-03T11:51:26Z</time>
      </trkpt>
      <trkpt lat="44.7727" lon="0.7917">
        <ele>120</ele>
        <time>2008-12-03T11:51:29Z</time>
      </trkpt>
      <trkpt lat="44.77275" lon="0.79145">
        <ele>119</ele>
        <time>2008-12-03T11:51:32Z</time>
      </trkpt>
      <trkpt lat="44.77278" lon="0.79118">
        <ele>121</ele>
        <time>2008-12-03T11:51:35Z</time>
      </trkpt>
      <trkpt lat="44.77285" lon="0.79088">
        <ele>126</ele>
        <time>2008-12-03T11:51:39Z</time>
      </trkpt>
      <trkpt lat="44.77293" lon="0.79058">
        <ele>129</ele>
        <time>2008-12-03T11:51:43Z</time>
      </trkpt>
      <trkpt lat="44.77298" lon="0.79033">
        <ele>130</ele>
        <time>2008-12-03T11:51:46Z</time>
      </trkpt>
      <trkpt lat="44.77295" lon="0.79003">
        <ele>130</ele>
        <time>2008-12-03T11:51:51Z</time>
      </trkpt>
      <trkpt lat="44.77288" lon="0.78978">
        <ele>128</ele>
        <time>2008-12-03T11:51:56Z</time>
      </trkpt>
      <trkpt lat="44.7728" lon="0.7895">
        <ele>128</ele>
        <time>2008-12-03T11:52:01Z</time>
      </trkpt>
      <trkpt lat="44.77278" lon="0.7892">
        <ele>129</ele>
        <time>2008-12-03T11:52:06Z</time>
      </trkpt>
      <trkpt lat="44.77278" lon="0.7889">
        <ele>130</ele>
        <time>2008-12-03T11:52:11Z</time>
      </trkpt>
      <trkpt lat="44.77283" lon="0.78865">
        <ele>132</ele>
        <time>2008-12-03T11:52:15Z</time>
      </trkpt>
      <trkpt lat="44.77288" lon="0.78838">
        <ele>133</ele>
        <time>2008-12-03T11:52:19Z</time>
      </trkpt>
      <trkpt lat="44.77293" lon="0.78813">
        <ele>134</ele>
        <time>2008-12-03T11:52:23Z</time>
      </trkpt>
      <trkpt lat="44.773" lon="0.78785">
        <ele>136</ele>
        <time>2008-12-03T11:52:27Z</time>
      </trkpt>
      <trkpt lat="44.77308" lon="0.7876">
        <ele>138</ele>
        <time>2008-12-03T11:52:31Z</time>
      </trkpt>
      <trkpt lat="44.77315" lon="0.78735">
        <ele>140</ele>
        <time>2008-12-03T11:52:35Z</time>
      </trkpt>
      <trkpt lat="44.77323" lon="0.7871">
        <ele>142</ele>
        <time>2008-12-03T11:52:39Z</time>
      </trkpt>
      <trkpt lat="44.7733" lon="0.78685">
        <ele>143</ele>
        <time>2008-12-03T11:52:46Z</time>
      </trkpt>
      <trkpt lat="44.77337" lon="0.78668">
        <ele>142</ele>
        <time>2008-12-03T11:52:52Z</time>
      </trkpt>
    </trkseg>
  </trk>
</gpx>